sensor_id;sensor_type;location;lat;lon;timestamp;pressure;altitude;pressure_sealevel;temperature;humidity
79129;BME280;68529;43.286;23.360;2023-08-21T00:01:51;99429.91;;;24.70;49.73
79129;BME280;68529;43.286;23.360;2023-08-21T00:04:17;99427.50;;;24.67;49.89
79129;BME280;68529;43.286;23.360;2023-08-21T00:06:43;99435.13;;;24.62;50.07
79129;BME280;68529;43.286;23.360;2023-08-21T00:09:08;99438.09;;;24.59;50.06
79129;BME280;68529;43.286;23.360;2023-08-21T00:11:34;99433.69;;;24.58;50.01
79129;BME280;68529;43.286;23.360;2023-08-21T00:14:00;99426.47;;;24.58;49.82
79129;BME280;68529;43.286;23.360;2023-08-21T00:16:25;99428.59;;;24.55;49.56
79129;BME280;68529;43.286;23.360;2023-08-21T00:18:52;99433.84;;;24.56;49.89
79129;BME280;68529;43.286;23.360;2023-08-21T00:21:18;99427.06;;;24.62;49.72
79129;BME280;68529;43.286;23.360;2023-08-21T00:23:45;99428.91;;;24.61;49.84
79129;BME280;68529;43.286;23.360;2023-08-21T00:26:11;99429.47;;;24.65;49.76
79129;BME280;68529;43.286;23.360;2023-08-21T00:28:37;99425.78;;;24.66;49.84
79129;BME280;68529;43.286;23.360;2023-08-21T00:31:03;99431.91;;;24.68;49.70
79129;BME280;68529;43.286;23.360;2023-08-21T00:33:31;99438.25;;;24.67;49.97
79129;BME280;68529;43.286;23.360;2023-08-21T00:35:56;99432.16;;;24.65;49.74
79129;BME280;68529;43.286;23.360;2023-08-21T00:38:22;99420.84;;;24.61;49.74
79129;BME280;68529;43.286;23.360;2023-08-21T00:40:48;99432.72;;;24.59;49.69
79129;BME280;68529;43.286;23.360;2023-08-21T00:43:13;99431.84;;;24.58;49.86
79129;BME280;68529;43.286;23.360;2023-08-21T00:45:41;99429.59;;;24.54;49.99
79129;BME280;68529;43.286;23.360;2023-08-21T00:48:08;99425.56;;;24.39;50.31
79129;BME280;68529;43.286;23.360;2023-08-21T00:50:35;99423.72;;;24.39;50.52
79129;BME280;68529;43.286;23.360;2023-08-21T00:53:01;99424.84;;;24.37;50.50
79129;BME280;68529;43.286;23.360;2023-08-21T00:55:26;99423.84;;;24.38;50.28
79129;BME280;68529;43.286;23.360;2023-08-21T00:57:52;99421.16;;;24.38;50.43
79129;BME280;68529;43.286;23.360;2023-08-21T01:00:19;99420.63;;;24.34;50.32
79129;BME280;68529;43.286;23.360;2023-08-21T01:02:44;99419.88;;;24.32;50.53
79129;BME280;68529;43.286;23.360;2023-08-21T01:05:10;99418.19;;;24.31;50.34
79129;BME280;68529;43.286;23.360;2023-08-21T01:07:41;99422.16;;;24.37;50.18
79129;BME280;68529;43.286;23.360;2023-08-21T01:10:26;99418.47;;;24.38;50.13
79129;BME280;68529;43.286;23.360;2023-08-21T01:13:01;99417.94;;;24.34;50.18
79129;BME280;68529;43.286;23.360;2023-08-21T01:15:31;99419.88;;;24.32;50.36
79129;BME280;68529;43.286;23.360;2023-08-21T01:17:58;99425.13;;;24.33;50.38
79129;BME280;68529;43.286;23.360;2023-08-21T01:20:24;99421.72;;;24.31;50.27
79129;BME280;68529;43.286;23.360;2023-08-21T01:22:50;99413.94;;;24.28;50.32
79129;BME280;68529;43.286;23.360;2023-08-21T01:25:15;99413.47;;;24.23;50.61
79129;BME280;68529;43.286;23.360;2023-08-21T01:27:43;99414.22;;;24.25;50.17
79129;BME280;68529;43.286;23.360;2023-08-21T01:30:10;99419.59;;;24.25;50.25
79129;BME280;68529;43.286;23.360;2023-08-21T01:35:11;99416.91;;;24.25;50.29
79129;BME280;68529;43.286;23.360;2023-08-21T01:37:37;99418.03;;;24.23;50.32
79129;BME280;68529;43.286;23.360;2023-08-21T01:40:04;99415.34;;;24.23;50.63
79129;BME280;68529;43.286;23.360;2023-08-21T01:42:29;99420.56;;;24.24;50.50
79129;BME280;68529;43.286;23.360;2023-08-21T01:44:55;99415.19;;;24.24;50.27
79129;BME280;68529;43.286;23.360;2023-08-21T01:47:20;99415.06;;;24.26;50.17
79129;BME280;68529;43.286;23.360;2023-08-21T01:49:46;99413.22;;;24.26;50.15
79129;BME280;68529;43.286;23.360;2023-08-21T01:52:11;99414.34;;;24.24;50.29
79129;BME280;68529;43.286;23.360;2023-08-21T01:54:36;99411.91;;;24.21;50.37
79129;BME280;68529;43.286;23.360;2023-08-21T01:57:02;99413.88;;;24.19;50.34
79129;BME280;68529;43.286;23.360;2023-08-21T01:59:28;99405.25;;;24.15;50.43
79129;BME280;68529;43.286;23.360;2023-08-21T02:01:53;99412.84;;;24.10;50.61
79129;BME280;68529;43.286;23.360;2023-08-21T02:04:19;99415.78;;;24.07;50.65
79129;BME280;68529;43.286;23.360;2023-08-21T02:06:44;99413.09;;;24.07;50.67
79129;BME280;68529;43.286;23.360;2023-08-21T02:09:10;99409.81;;;24.04;50.86
79129;BME280;68529;43.286;23.360;2023-08-21T02:11:35;99413.50;;;24.03;50.71
79129;BME280;68529;43.286;23.360;2023-08-21T02:14:01;99411.78;;;24.02;50.84
79129;BME280;68529;43.286;23.360;2023-08-21T02:16:27;99412.91;;;23.99;50.68
79129;BME280;68529;43.286;23.360;2023-08-21T02:18:52;99420.97;;;23.99;51.01
79129;BME280;68529;43.286;23.360;2023-08-21T02:21:18;99417.84;;;23.94;51.00
79129;BME280;68529;43.286;23.360;2023-08-21T02:23:43;99415.16;;;23.94;51.02
79129;BME280;68529;43.286;23.360;2023-08-21T02:26:09;99419.66;;;23.94;51.03
79129;BME280;68529;43.286;23.360;2023-08-21T02:28:34;99418.81;;;23.93;51.23
79129;BME280;68529;43.286;23.360;2023-08-21T02:31:00;99415.66;;;23.88;51.21
79129;BME280;68529;43.286;23.360;2023-08-21T02:33:25;99414.97;;;23.86;51.08
79129;BME280;68529;43.286;23.360;2023-08-21T02:35:51;99413.25;;;23.85;51.06
79129;BME280;68529;43.286;23.360;2023-08-21T02:38:16;99418.75;;;23.84;51.42
79129;BME280;68529;43.286;23.360;2023-08-21T02:40:42;99413.66;;;23.81;51.50
79129;BME280;68529;43.286;23.360;2023-08-21T02:43:07;99411.22;;;23.77;51.89
79129;BME280;68529;43.286;23.360;2023-08-21T02:45:32;99418.84;;;23.72;51.74
79129;BME280;68529;43.286;23.360;2023-08-21T02:47:58;99416.53;;;23.68;51.78
79129;BME280;68529;43.286;23.360;2023-08-21T02:50:24;99409.34;;;23.68;51.89
79129;BME280;68529;43.286;23.360;2023-08-21T02:52:49;99412.16;;;23.67;51.76
79129;BME280;68529;43.286;23.360;2023-08-21T02:55:14;99406.53;;;23.70;51.54
79129;BME280;68529;43.286;23.360;2023-08-21T02:57:41;99412.47;;;23.73;51.75
79129;BME280;68529;43.286;23.360;2023-08-21T03:00:06;99405.00;;;23.77;51.84
79129;BME280;68529;43.286;23.360;2023-08-21T03:02:37;99411.94;;;23.80;51.63
79129;BME280;68529;43.286;23.360;2023-08-21T03:05:02;99411.94;;;23.80;51.72
79129;BME280;68529;43.286;23.360;2023-08-21T03:07:28;99415.22;;;23.83;51.69
79129;BME280;68529;43.286;23.360;2023-08-21T03:09:53;99413.66;;;23.81;51.53
79129;BME280;68529;43.286;23.360;2023-08-21T03:12:19;99407.19;;;23.83;51.58
79129;BME280;68529;43.286;23.360;2023-08-21T03:14:45;99413.66;;;23.81;51.66
79129;BME280;68529;43.286;23.360;2023-08-21T03:17:11;99415.06;;;23.85;51.52
79129;BME280;68529;43.286;23.360;2023-08-21T03:19:36;99425.69;;;23.86;51.46
79129;BME280;68529;43.286;23.360;2023-08-21T03:22:01;99420.06;;;23.89;51.39
79129;BME280;68529;43.286;23.360;2023-08-21T03:24:27;99420.19;;;23.88;51.48
79129;BME280;68529;43.286;23.360;2023-08-21T03:26:52;99425.16;;;23.92;51.25
79129;BME280;68529;43.286;23.360;2023-08-21T03:29:18;99423.91;;;23.96;51.31
79129;BME280;68529;43.286;23.360;2023-08-21T03:31:47;99424.50;;;24.00;51.19
79129;BME280;68529;43.286;23.360;2023-08-21T03:34:13;99425.34;;;24.00;51.17
79129;BME280;68529;43.286;23.360;2023-08-21T03:36:38;99426.31;;;23.99;51.14
79129;BME280;68529;43.286;23.360;2023-08-21T03:39:03;99431.44;;;24.02;50.97
79129;BME280;68529;43.286;23.360;2023-08-21T03:41:31;99437.50;;;24.04;51.39
79129;BME280;68529;43.286;23.360;2023-08-21T03:43:56;99428.22;;;24.08;51.42
79129;BME280;68529;43.286;23.360;2023-08-21T03:46:21;99431.38;;;24.13;51.09
79129;BME280;68529;43.286;23.360;2023-08-21T03:48:47;99434.50;;;24.18;50.92
79129;BME280;68529;43.286;23.360;2023-08-21T03:51:12;99423.50;;;24.21;50.92
79129;BME280;68529;43.286;23.360;2023-08-21T03:53:38;99433.97;;;24.24;50.96
79129;BME280;68529;43.286;23.360;2023-08-21T03:56:03;99430.16;;;24.27;50.94
79129;BME280;68529;43.286;23.360;2023-08-21T03:58:29;99437.09;;;24.29;51.04
79129;BME280;68529;43.286;23.360;2023-08-21T04:00:54;99439.94;;;24.28;51.02
79129;BME280;68529;43.286;23.360;2023-08-21T04:03:20;99430.06;;;24.28;51.07
79129;BME280;68529;43.286;23.360;2023-08-21T04:05:46;99435.00;;;24.33;51.26
79129;BME280;68529;43.286;23.360;2023-08-21T04:08:11;99431.34;;;24.34;51.26
79129;BME280;68529;43.286;23.360;2023-08-21T04:10:37;99434.59;;;24.38;51.28
79129;BME280;68529;43.286;23.360;2023-08-21T04:13:04;99439.69;;;24.41;51.10
79129;BME280;68529;43.286;23.360;2023-08-21T04:15:29;99437.59;;;24.44;51.16
79129;BME280;68529;43.286;23.360;2023-08-21T04:17:55;99441.72;;;24.48;50.97
79129;BME280;68529;43.286;23.360;2023-08-21T04:20:20;99450.34;;;24.52;50.97
79129;BME280;68529;43.286;23.360;2023-08-21T04:22:49;99445.56;;;24.55;51.15
79129;BME280;68529;43.286;23.360;2023-08-21T04:25:15;99438.09;;;24.59;50.81
79129;BME280;68529;43.286;23.360;2023-08-21T04:27:41;99445.13;;;24.60;50.98
79129;BME280;68529;43.286;23.360;2023-08-21T04:30:07;99448.81;;;24.59;50.91
79129;BME280;68529;43.286;23.360;2023-08-21T04:32:33;99447.81;;;24.60;50.81
79129;BME280;68529;43.286;23.360;2023-08-21T04:34:58;99446.84;;;24.61;50.90
79129;BME280;68529;43.286;23.360;2023-08-21T04:37:24;99442.91;;;24.65;50.93
79129;BME280;68529;43.286;23.360;2023-08-21T04:39:50;99446.31;;;24.67;51.16
79129;BME280;68529;43.286;23.360;2023-08-21T04:42:16;99442.66;;;24.68;50.89
79129;BME280;68529;43.286;23.360;2023-08-21T04:44:42;99452.81;;;24.74;50.93
79129;BME280;68529;43.286;23.360;2023-08-21T04:47:24;99442.25;;;24.82;51.02
79129;BME280;68529;43.286;23.360;2023-08-21T04:49:51;99443.28;;;24.90;50.69
79129;BME280;68529;43.286;23.360;2023-08-21T04:52:17;99441.88;;;24.96;50.91
79129;BME280;68529;43.286;23.360;2023-08-21T04:54:42;99438.78;;;25.01;50.66
79129;BME280;68529;43.286;23.360;2023-08-21T04:57:07;99442.75;;;25.06;50.44
79129;BME280;68529;43.286;23.360;2023-08-21T04:59:34;99449.25;;;25.13;50.63
79129;BME280;68529;43.286;23.360;2023-08-21T05:01:59;99443.91;;;25.23;50.65
79129;BME280;68529;43.286;23.360;2023-08-21T05:04:25;99452.69;;;25.34;50.55
79129;BME280;68529;43.286;23.360;2023-08-21T05:06:50;99455.25;;;25.45;50.79
79129;BME280;68529;43.286;23.360;2023-08-21T05:09:15;99461.06;;;25.60;50.47
79129;BME280;68529;43.286;23.360;2023-08-21T05:11:41;99456.09;;;25.75;50.08
79129;BME280;68529;43.286;23.360;2023-08-21T05:14:06;99455.09;;;25.85;50.45
79129;BME280;68529;43.286;23.360;2023-08-21T05:16:32;99449.69;;;25.95;50.46
79129;BME280;68529;43.286;23.360;2023-08-21T05:18:57;99458.59;;;26.05;50.37
79129;BME280;68529;43.286;23.360;2023-08-21T05:21:23;99454.09;;;26.15;50.16
79129;BME280;68529;43.286;23.360;2023-08-21T05:23:48;99450.53;;;26.24;50.44
79129;BME280;68529;43.286;23.360;2023-08-21T05:26:13;99454.72;;;26.36;50.04
79129;BME280;68529;43.286;23.360;2023-08-21T05:28:39;99448.56;;;26.44;50.11
79129;BME280;68529;43.286;23.360;2023-08-21T05:31:04;99447.13;;;26.49;50.47
79129;BME280;68529;43.286;23.360;2023-08-21T05:33:29;99453.19;;;26.61;50.54
79129;BME280;68529;43.286;23.360;2023-08-21T05:35:56;99453.84;;;26.73;49.87
79129;BME280;68529;43.286;23.360;2023-08-21T05:38:22;99458.38;;;26.82;50.14
79129;BME280;68529;43.286;23.360;2023-08-21T05:40:48;99460.19;;;26.91;49.65
79129;BME280;68529;43.286;23.360;2023-08-21T05:43:13;99459.03;;;26.93;50.29
79129;BME280;68529;43.286;23.360;2023-08-21T05:45:39;99460.94;;;27.01;50.10
79129;BME280;68529;43.286;23.360;2023-08-21T05:48:04;99461.91;;;27.09;49.74
79129;BME280;68529;43.286;23.360;2023-08-21T05:50:30;99456.59;;;27.17;50.26
79129;BME280;68529;43.286;23.360;2023-08-21T05:52:56;99464.94;;;27.24;50.46
79129;BME280;68529;43.286;23.360;2023-08-21T05:55:23;99462.38;;;27.40;51.02
79129;BME280;68529;43.286;23.360;2023-08-21T05:57:48;99463.47;;;27.47;50.20
79129;BME280;68529;43.286;23.360;2023-08-21T06:00:14;99462.13;;;27.61;49.93
79129;BME280;68529;43.286;23.360;2023-08-21T06:02:39;99467.09;;;27.73;49.47
79129;BME280;68529;43.286;23.360;2023-08-21T06:05:07;99459.06;;;27.82;49.94
79129;BME280;68529;43.286;23.360;2023-08-21T06:07:32;99461.19;;;27.96;50.65
79129;BME280;68529;43.286;23.360;2023-08-21T06:09:58;99452.25;;;28.13;51.24
79129;BME280;68529;43.286;23.360;2023-08-21T06:12:23;99454.69;;;28.24;50.09
79129;BME280;68529;43.286;23.360;2023-08-21T06:14:48;99459.13;;;28.33;50.23
79129;BME280;68529;43.286;23.360;2023-08-21T06:17:14;99464.09;;;28.46;50.22
79129;BME280;68529;43.286;23.360;2023-08-21T06:19:39;99455.69;;;28.57;49.80
79129;BME280;68529;43.286;23.360;2023-08-21T06:22:05;99453.59;;;28.68;49.79
79129;BME280;68529;43.286;23.360;2023-08-21T06:24:30;99455.84;;;28.81;50.08
79129;BME280;68529;43.286;23.360;2023-08-21T06:26:56;99460.13;;;28.92;49.30
79129;BME280;68529;43.286;23.360;2023-08-21T06:29:21;99458.09;;;29.02;49.57
79129;BME280;68529;43.286;23.360;2023-08-21T06:31:47;99468.47;;;29.14;49.19
79129;BME280;68529;43.286;23.360;2023-08-21T06:34:12;99467.44;;;29.15;48.28
79129;BME280;68529;43.286;23.360;2023-08-21T06:36:38;99468.69;;;29.29;47.94
79129;BME280;68529;43.286;23.360;2023-08-21T06:39:03;99475.47;;;29.33;48.49
79129;BME280;68529;43.286;23.360;2023-08-21T06:41:29;99479.25;;;29.48;50.16
79129;BME280;68529;43.286;23.360;2023-08-21T06:43:54;99480.09;;;29.65;49.04
79129;BME280;68529;43.286;23.360;2023-08-21T06:46:19;99477.88;;;29.52;47.78
79129;BME280;68529;43.286;23.360;2023-08-21T06:48:45;99476.00;;;29.44;48.54
79129;BME280;68529;43.286;23.360;2023-08-21T06:51:11;99476.88;;;29.53;47.96
79129;BME280;68529;43.286;23.360;2023-08-21T06:53:36;99485.84;;;29.54;47.71
79129;BME280;68529;43.286;23.360;2023-08-21T06:56:02;99479.72;;;29.60;48.58
79129;BME280;68529;43.286;23.360;2023-08-21T06:58:28;99481.28;;;29.78;48.78
79129;BME280;68529;43.286;23.360;2023-08-21T07:00:54;99480.66;;;29.92;49.01
79129;BME280;68529;43.286;23.360;2023-08-21T07:03:21;99471.97;;;30.13;48.41
79129;BME280;68529;43.286;23.360;2023-08-21T07:05:53;99473.63;;;30.30;48.21
79129;BME280;68529;43.286;23.360;2023-08-21T07:08:19;99479.72;;;30.40;45.91
79129;BME280;68529;43.286;23.360;2023-08-21T07:10:44;99472.09;;;30.44;45.88
79129;BME280;68529;43.286;23.360;2023-08-21T07:13:10;99478.53;;;30.59;45.04
79129;BME280;68529;43.286;23.360;2023-08-21T07:15:35;99476.09;;;30.72;46.45
79129;BME280;68529;43.286;23.360;2023-08-21T07:18:00;99470.28;;;30.83;43.90
79129;BME280;68529;43.286;23.360;2023-08-21T07:20:26;99477.72;;;30.97;43.70
79129;BME280;68529;43.286;23.360;2023-08-21T07:22:51;99475.25;;;31.10;42.92
79129;BME280;68529;43.286;23.360;2023-08-21T07:25:16;99475.22;;;31.19;41.47
79129;BME280;68529;43.286;23.360;2023-08-21T07:27:42;99468.56;;;31.29;42.35
79129;BME280;68529;43.286;23.360;2023-08-21T07:30:08;99471.72;;;31.41;43.42
79129;BME280;68529;43.286;23.360;2023-08-21T07:32:33;99465.41;;;31.48;40.62
79129;BME280;68529;43.286;23.360;2023-08-21T07:34:59;99459.06;;;31.56;41.29
79129;BME280;68529;43.286;23.360;2023-08-21T07:37:24;99467.16;;;31.64;38.98
79129;BME280;68529;43.286;23.360;2023-08-21T07:39:49;99465.56;;;31.69;40.70
79129;BME280;68529;43.286;23.360;2023-08-21T07:42:15;99466.72;;;31.75;38.86
79129;BME280;68529;43.286;23.360;2023-08-21T07:44:41;99465.41;;;31.71;38.76
79129;BME280;68529;43.286;23.360;2023-08-21T07:47:06;99460.47;;;31.89;39.59
79129;BME280;68529;43.286;23.360;2023-08-21T07:49:32;99463.50;;;31.94;37.85
79129;BME280;68529;43.286;23.360;2023-08-21T07:51:58;99455.13;;;32.04;37.89
79129;BME280;68529;43.286;23.360;2023-08-21T07:54:23;99461.97;;;32.14;39.38
79129;BME280;68529;43.286;23.360;2023-08-21T07:56:50;99464.16;;;32.34;39.73
79129;BME280;68529;43.286;23.360;2023-08-21T07:59:15;99459.75;;;32.47;39.85
79129;BME280;68529;43.286;23.360;2023-08-21T08:01:41;99468.31;;;32.59;38.18
79129;BME280;68529;43.286;23.360;2023-08-21T08:04:06;99454.44;;;32.68;39.55
79129;BME280;68529;43.286;23.360;2023-08-21T08:06:32;99456.88;;;32.78;39.08
79129;BME280;68529;43.286;23.360;2023-08-21T08:08:57;99454.03;;;32.86;37.73
79129;BME280;68529;43.286;23.360;2023-08-21T08:11:23;99456.25;;;32.97;38.25
79129;BME280;68529;43.286;23.360;2023-08-21T08:13:48;99450.56;;;33.07;37.10
79129;BME280;68529;43.286;23.360;2023-08-21T08:16:13;99454.03;;;33.15;37.49
79129;BME280;68529;43.286;23.360;2023-08-21T08:18:39;99454.03;;;33.15;36.84
79129;BME280;68529;43.286;23.360;2023-08-21T08:21:04;99451.66;;;33.27;37.24
79129;BME280;68529;43.286;23.360;2023-08-21T08:23:30;99452.63;;;33.40;37.82
79129;BME280;68529;43.286;23.360;2023-08-21T08:25:55;99448.06;;;33.48;36.47
79129;BME280;68529;43.286;23.360;2023-08-21T08:28:21;99452.38;;;33.57;36.91
79129;BME280;68529;43.286;23.360;2023-08-21T08:30:46;99452.25;;;33.65;37.24
79129;BME280;68529;43.286;23.360;2023-08-21T08:33:11;99453.81;;;33.74;36.94
79129;BME280;68529;43.286;23.360;2023-08-21T08:35:37;99454.78;;;33.87;37.27
79129;BME280;68529;43.286;23.360;2023-08-21T08:38:02;99443.75;;;33.95;35.62
79129;BME280;68529;43.286;23.360;2023-08-21T08:40:28;99443.59;;;34.04;36.73
79129;BME280;68529;43.286;23.360;2023-08-21T08:42:53;99445.16;;;34.13;35.98
79129;BME280;68529;43.286;23.360;2023-08-21T08:45:28;99448.97;;;34.18;35.64
79129;BME280;68529;43.286;23.360;2023-08-21T08:55:16;99434.44;;;34.39;35.06
79129;BME280;68529;43.286;23.360;2023-08-21T08:57:41;99433.44;;;34.46;33.77
79129;BME280;68529;43.286;23.360;2023-08-21T09:00:07;99437.03;;;34.53;34.84
79129;BME280;68529;43.286;23.360;2023-08-21T09:02:33;99428.91;;;34.60;34.50
79129;BME280;68529;43.286;23.360;2023-08-21T09:04:58;99430.34;;;34.56;32.73
79129;BME280;68529;43.286;23.360;2023-08-21T09:07:25;99425.47;;;34.51;32.52
79129;BME280;68529;43.286;23.360;2023-08-21T09:09:50;99421.22;;;34.42;31.84
79129;BME280;68529;43.286;23.360;2023-08-21T09:12:18;99421.19;;;34.36;32.82
79129;BME280;68529;43.286;23.360;2023-08-21T09:14:44;99424.44;;;34.52;32.54
79129;BME280;68529;43.286;23.360;2023-08-21T09:17:11;99419.31;;;34.71;31.81
79129;BME280;68529;43.286;23.360;2023-08-21T09:19:36;99421.28;;;34.90;32.32
79129;BME280;68529;43.286;23.360;2023-08-21T09:22:13;99412.31;;;35.02;32.89
79129;BME280;68529;43.286;23.360;2023-08-21T09:24:40;99413.03;;;35.18;32.74
79129;BME280;68529;43.286;23.360;2023-08-21T09:27:13;99408.63;;;35.23;31.45
79129;BME280;68529;43.286;23.360;2023-08-21T09:29:40;99413.91;;;35.31;32.25
79129;BME280;68529;43.286;23.360;2023-08-21T09:32:06;99409.47;;;35.43;31.59
79129;BME280;68529;43.286;23.360;2023-08-21T09:34:36;99407.00;;;35.55;31.83
79129;BME280;68529;43.286;23.360;2023-08-21T09:37:05;99405.78;;;35.71;31.26
79129;BME280;68529;43.286;23.360;2023-08-21T09:39:34;99404.50;;;35.80;31.38
79129;BME280;68529;43.286;23.360;2023-08-21T09:42:01;99401.78;;;35.86;30.92
79129;BME280;68529;43.286;23.360;2023-08-21T09:44:27;99399.03;;;35.86;30.06
79129;BME280;68529;43.286;23.360;2023-08-21T09:46:52;99392.09;;;35.84;29.59
79129;BME280;68529;43.286;23.360;2023-08-21T09:49:19;99395.69;;;35.84;29.90
79129;BME280;68529;43.286;23.360;2023-08-21T09:51:46;99393.97;;;35.96;30.19
79129;BME280;68529;43.286;23.360;2023-08-21T09:54:12;99400.28;;;35.97;28.28
79129;BME280;68529;43.286;23.360;2023-08-21T09:56:39;99393.56;;;35.86;28.07
79129;BME280;68529;43.286;23.360;2023-08-21T09:59:05;99389.34;;;35.57;29.11
79129;BME280;68529;43.286;23.360;2023-08-21T10:01:33;99389.34;;;35.77;29.80
79129;BME280;68529;43.286;23.360;2023-08-21T10:04:01;99386.81;;;36.02;29.63
79129;BME280;68529;43.286;23.360;2023-08-21T10:06:28;99380.94;;;36.18;29.47
79129;BME280;68529;43.286;23.360;2023-08-21T10:08:56;99384.91;;;36.22;29.08
79129;BME280;68529;43.286;23.360;2023-08-21T10:11:22;99377.50;;;36.36;29.10
79129;BME280;68529;43.286;23.360;2023-08-21T10:13:48;99373.06;;;36.41;28.87
79129;BME280;68529;43.286;23.360;2023-08-21T10:16:16;99378.16;;;36.31;27.66
79129;BME280;68529;43.286;23.360;2023-08-21T10:18:44;99377.75;;;36.28;28.37
79129;BME280;68529;43.286;23.360;2023-08-21T10:21:13;99369.78;;;36.19;27.54
79129;BME280;68529;43.286;23.360;2023-08-21T10:23:39;99366.41;;;36.04;27.73
79129;BME280;68529;43.286;23.360;2023-08-21T10:26:06;99359.44;;;36.02;27.24
79129;BME280;68529;43.286;23.360;2023-08-21T10:29:02;99359.06;;;35.98;27.93
79129;BME280;68529;43.286;23.360;2023-08-21T10:33:57;99364.53;;;35.85;28.81
79129;BME280;68529;43.286;23.360;2023-08-21T10:37:03;99350.44;;;36.14;29.12
79129;BME280;68529;43.286;23.360;2023-08-21T10:39:29;99346.13;;;36.45;29.01
79129;BME280;68529;43.286;23.360;2023-08-21T10:42:12;99342.78;;;36.30;27.92
79129;BME280;68529;43.286;23.360;2023-08-21T10:47:17;99337.56;;;36.28;28.95
79129;BME280;68529;43.286;23.360;2023-08-21T10:49:47;99344.44;;;36.50;28.44
79129;BME280;68529;43.286;23.360;2023-08-21T10:52:14;99334.09;;;36.59;27.61
79129;BME280;68529;43.286;23.360;2023-08-21T10:54:47;99339.13;;;36.62;29.11
79129;BME280;68529;43.286;23.360;2023-08-21T10:57:13;99332.78;;;36.68;28.30
79129;BME280;68529;43.286;23.360;2023-08-21T10:59:52;99329.22;;;36.67;28.33
79129;BME280;68529;43.286;23.360;2023-08-21T11:02:18;99328.78;;;36.70;29.19
79129;BME280;68529;43.286;23.360;2023-08-21T11:04:44;99335.28;;;36.76;28.46
79129;BME280;68529;43.286;23.360;2023-08-21T11:07:10;99334.03;;;36.72;26.76
79129;BME280;68529;43.286;23.360;2023-08-21T11:09:36;99329.09;;;36.36;28.09
79129;BME280;68529;43.286;23.360;2023-08-21T11:12:09;99318.78;;;36.38;27.42
79129;BME280;68529;43.286;23.360;2023-08-21T11:14:36;99319.16;;;36.48;27.49
79129;BME280;68529;43.286;23.360;2023-08-21T11:17:02;99324.91;;;36.34;27.85
79129;BME280;68529;43.286;23.360;2023-08-21T11:19:30;99322.81;;;36.29;27.62
79129;BME280;68529;43.286;23.360;2023-08-21T11:21:55;99323.88;;;36.21;27.44
79129;BME280;68529;43.286;23.360;2023-08-21T11:24:20;99316.09;;;36.18;28.09
79129;BME280;68529;43.286;23.360;2023-08-21T11:26:47;99318.03;;;36.18;28.31
79129;BME280;68529;43.286;23.360;2023-08-21T11:29:14;99312.88;;;36.41;27.83
79129;BME280;68529;43.286;23.360;2023-08-21T11:31:39;99318.78;;;36.38;27.25
79129;BME280;68529;43.286;23.360;2023-08-21T11:34:05;99311.81;;;36.42;28.14
79129;BME280;68529;43.286;23.360;2023-08-21T11:36:31;99314.75;;;36.54;27.99
79129;BME280;68529;43.286;23.360;2023-08-21T11:39:01;99312.19;;;36.59;28.19
79129;BME280;68529;43.286;23.360;2023-08-21T11:41:28;99307.50;;;36.66;28.00
79129;BME280;68529;43.286;23.360;2023-08-21T11:44:01;99308.19;;;36.61;27.33
79129;BME280;68529;43.286;23.360;2023-08-21T11:46:26;99300.03;;;36.35;28.32
79129;BME280;68529;43.286;23.360;2023-08-21T11:48:52;99302.22;;;36.20;27.72
79129;BME280;68529;43.286;23.360;2023-08-21T11:51:17;99294.69;;;36.02;28.78
79129;BME280;68529;43.286;23.360;2023-08-21T11:53:43;99298.06;;;35.91;28.79
79129;BME280;68529;43.286;23.360;2023-08-21T11:56:09;99293.41;;;36.05;28.46
79129;BME280;68529;43.286;23.360;2023-08-21T11:58:45;99286.66;;;36.14;28.34
79129;BME280;68529;43.286;23.360;2023-08-21T12:01:16;99293.81;;;36.15;28.66
79129;BME280;68529;43.286;23.360;2023-08-21T12:03:43;99295.06;;;36.19;27.80
79129;BME280;68529;43.286;23.360;2023-08-21T12:06:10;99286.25;;;35.97;27.31
79129;BME280;68529;43.286;23.360;2023-08-21T12:08:36;99291.31;;;35.94;27.87
79129;BME280;68529;43.286;23.360;2023-08-21T12:11:02;99282.25;;;36.00;28.23
79129;BME280;68529;43.286;23.360;2023-08-21T12:13:28;99286.66;;;36.14;28.65
79129;BME280;68529;43.286;23.360;2023-08-21T12:15:53;99288.53;;;36.27;28.44
79129;BME280;68529;43.286;23.360;2023-08-21T12:18:19;99286.84;;;36.19;27.48
79129;BME280;68529;43.286;23.360;2023-08-21T12:20:45;99287.44;;;36.28;27.53
79129;BME280;68529;43.286;23.360;2023-08-21T12:23:10;99278.69;;;36.12;27.41
79129;BME280;68529;43.286;23.360;2023-08-21T12:25:36;99283.75;;;35.96;27.97
79129;BME280;68529;43.286;23.360;2023-08-21T12:28:01;99276.00;;;35.80;28.57
79129;BME280;68529;43.286;23.360;2023-08-21T12:30:27;99276.22;;;35.72;27.46
79129;BME280;68529;43.286;23.360;2023-08-21T12:32:52;99271.59;;;35.52;27.25
79129;BME280;68529;43.286;23.360;2023-08-21T12:35:18;99276.66;;;35.42;27.34
79129;BME280;68529;43.286;23.360;2023-08-21T12:37:43;99270.97;;;35.24;27.56
79129;BME280;68529;43.286;23.360;2023-08-21T12:40:08;99272.47;;;35.20;28.43
79129;BME280;68529;43.286;23.360;2023-08-21T12:42:34;99281.06;;;35.17;29.19
79129;BME280;68529;43.286;23.360;2023-08-21T12:44:59;99273.47;;;35.13;29.01
79129;BME280;68529;43.286;23.360;2023-08-21T12:47:25;99260.25;;;35.09;28.94
79129;BME280;68529;43.286;23.360;2023-08-21T12:49:50;99259.81;;;35.06;29.57
79129;BME280;68529;43.286;23.360;2023-08-21T12:52:15;99268.22;;;34.98;30.14
79129;BME280;68529;43.286;23.360;2023-08-21T12:54:41;99265.44;;;34.85;31.56
79129;BME280;68529;43.286;23.360;2023-08-21T12:57:06;99267.31;;;34.65;34.03
79129;BME280;68529;43.286;23.360;2023-08-21T12:59:32;99273.91;;;34.42;36.28
79129;BME280;68529;43.286;23.360;2023-08-21T13:02:01;99268.34;;;34.16;37.44